sensor_id;sensor_type;location;lat;lon;timestamp;pressure;altitude;pressure_sealevel;temperature;humidity
54389;BME280;40975;50.390;8.640;2022-10-31T00:00:55;99575.53;;;9.53;100.00
54389;BME280;40975;50.390;8.640;2022-10-31T00:03:21;99583.28;;;9.44;100.00
54389;BME280;40975;50.390;8.640;2022-10-31T00:05:49;99579.78;;;9.44;100.00
54389;BME280;40975;50.390;8.640;2022-10-31T00:08:15;99595.00;;;9.42;100.00
54389;BME280;40975;50.390;8.640;2022-10-31T00:10:42;99597.50;;;9.43;100.00
54389;BME280;40975;50.390;8.640;2022-10-31T00:13:08;99586.78;;;9.45;100.00
54389;BME280;40975;50.390;8.640;2022-10-31T00:15:34;99589.13;;;9.38;100.00
54389;BME280;40975;50.390;8.640;2022-10-31T00:18:00;99588.06;;;9.29;100.00
54389;BME280;40975;50.390;8.640;2022-10-31T00:20:26;99598.13;;;9.36;100.00
54389;BME280;40975;50.390;8.640;2022-10-31T00:22:51;99594.53;;;9.37;100.00
54389;BME280;40975;50.390;8.640;2022-10-31T00:25:16;99601.97;;;9.43;100.00
54389;BME280;40975;50.390;8.640;2022-10-31T00:27:42;99598.47;;;9.42;100.00
54389;BME280;40975;50.390;8.640;2022-10-31T00:30:07;99593.75;;;9.46;100.00
54389;BME280;40975;50.390;8.640;2022-10-31T00:32:33;99598.81;;;9.49;100.00
54389;BME280;40975;50.390;8.640;2022-10-31T00:34:58;99597.72;;;9.52;100.00
54389;BME280;40975;50.390;8.640;2022-10-31T00:37:23;99605.41;;;9.55;100.00
54389;BME280;40975;50.390;8.640;2022-10-31T00:39:49;99608.31;;;9.52;100.00
54389;BME280;40975;50.390;8.640;2022-10-31T00:42:15;99610.13;;;9.51;100.00
54389;BME280;40975;50.390;8.640;2022-10-31T00:44:42;99613.25;;;9.45;100.00
54389;BME280;40975;50.390;8.640;2022-10-31T00:47:07;99611.97;;;9.39;100.00
54389;BME280;40975;50.390;8.640;2022-10-31T00:49:32;99610.91;;;9.42;100.00
54389;BME280;40975;50.390;8.640;2022-10-31T00:51:58;99604.00;;;9.39;100.00
54389;BME280;40975;50.390;8.640;2022-10-31T00:54:23;99611.28;;;9.37;100.00
54389;BME280;40975;50.390;8.640;2022-10-31T00:56:48;99604.16;;;9.38;100.00
54389;BME280;40975;50.390;8.640;2022-10-31T00:59:14;99607.03;;;9.34;100.00
54389;BME280;40975;50.390;8.640;2022-10-31T01:01:40;99615.97;;;9.33;100.00
54389;BME280;40975;50.390;8.640;2022-10-31T01:04:05;99620.28;;;9.34;100.00
54389;BME280;40975;50.390;8.640;2022-10-31T01:06:31;99611.66;;;9.32;100.00
54389;BME280;40975;50.390;8.640;2022-10-31T01:08:57;99612.47;;;9.33;100.00
54389;BME280;40975;50.390;8.640;2022-10-31T01:11:23;99613.44;;;9.32;100.00
54389;BME280;40975;50.390;8.640;2022-10-31T01:13:52;99617.91;;;9.31;100.00
54389;BME280;40975;50.390;8.640;2022-10-31T01:16:20;99615.66;;;9.27;100.00
54389;BME280;40975;50.390;8.640;2022-10-31T01:18:46;99615.31;;;9.20;100.00
54389;BME280;40975;50.390;8.640;2022-10-31T01:21:17;99610.00;;;9.20;100.00
54389;BME280;40975;50.390;8.640;2022-10-31T01:23:42;99610.38;;;9.15;100.00
54389;BME280;40975;50.390;8.640;2022-10-31T01:26:21;99607.75;;;9.15;100.00
54389;BME280;40975;50.390;8.640;2022-10-31T01:28:49;99605.91;;;9.16;100.00
54389;BME280;40975;50.390;8.640;2022-10-31T01:31:16;99603.53;;;9.13;100.00
54389;BME280;40975;50.390;8.640;2022-10-31T01:33:42;99608.69;;;9.14;100.00
54389;BME280;40975;50.390;8.640;2022-10-31T01:36:20;99604.75;;;9.09;100.00
54389;BME280;40975;50.390;8.640;2022-10-31T01:38:51;99594.28;;;9.07;100.00
54389;BME280;40975;50.390;8.640;2022-10-31T01:41:22;99602.22;;;9.07;100.00
54389;BME280;40975;50.390;8.640;2022-10-31T01:43:56;99602.47;;;9.04;100.00
54389;BME280;40975;50.390;8.640;2022-10-31T01:46:35;99602.72;;;9.01;100.00
54389;BME280;40975;50.390;8.640;2022-10-31T01:49:04;99604.53;;;9.00;100.00
54389;BME280;40975;50.390;8.640;2022-10-31T01:51:33;99604.91;;;8.96;100.00
54389;BME280;40975;50.390;8.640;2022-10-31T01:54:03;99599.84;;;8.93;100.00
54389;BME280;40975;50.390;8.640;2022-10-31T01:56:29;99597.34;;;8.91;100.00
54389;BME280;40975;50.390;8.640;2022-10-31T01:58:57;99579.25;;;8.96;100.00
54389;BME280;40975;50.390;8.640;2022-10-31T02:01:24;99581.66;;;8.99;100.00
54389;BME280;40975;50.390;8.640;2022-10-31T02:03:49;99591.53;;;8.97;100.00
54389;BME280;40975;50.390;8.640;2022-10-31T02:06:46;99588.75;;;8.99;100.00
54389;BME280;40975;50.390;8.640;2022-10-31T02:09:14;99600.44;;;8.96;100.00
54389;BME280;40975;50.390;8.640;2022-10-31T02:11:41;99600.78;;;9.03;100.00
54389;BME280;40975;50.390;8.640;2022-10-31T02:14:10;99600.91;;;9.01;100.00
54389;BME280;40975;50.390;8.640;2022-10-31T02:16:35;99605.34;;;9.01;100.00
54389;BME280;40975;50.390;8.640;2022-10-31T02:19:02;99598.66;;;8.97;100.00
54389;BME280;40975;50.390;8.640;2022-10-31T02:21:45;99593.47;;;8.95;100.00
54389;BME280;40975;50.390;8.640;2022-10-31T02:24:31;99595.03;;;8.98;100.00
54389;BME280;40975;50.390;8.640;2022-10-31T02:27:11;99600.34;;;8.98;100.00
54389;BME280;40975;50.390;8.640;2022-10-31T02:32:29;99587.94;;;8.98;100.00
54389;BME280;40975;50.390;8.640;2022-10-31T02:38:07;99590.22;;;8.92;100.00
54389;BME280;40975;50.390;8.640;2022-10-31T02:41:03;99591.19;;;8.91;100.00
54389;BME280;40975;50.390;8.640;2022-10-31T02:43:52;99587.34;;;8.95;100.00
54389;BME280;40975;50.390;8.640;2022-10-31T02:46:34;99589.97;;;8.95;100.00
54389;BME280;40975;50.390;8.640;2022-10-31T02:49:34;99591.78;;;8.94;100.00
54389;BME280;40975;50.390;8.640;2022-10-31T02:52:02;99584.94;;;8.92;100.00
54389;BME280;40975;50.390;8.640;2022-10-31T02:54:28;99586.63;;;8.93;100.00
54389;BME280;40975;50.390;8.640;2022-10-31T02:56:58;99591.41;;;8.99;100.00
54389;BME280;40975;50.390;8.640;2022-10-31T02:59:25;99581.53;;;9.01;100.00
54389;BME280;40975;50.390;8.640;2022-10-31T03:02:08;99577.09;;;9.01;100.00
54389;BME280;40975;50.390;8.640;2022-10-31T03:04:49;99577.19;;;9.00;100.00
54389;BME280;40975;50.390;8.640;2022-10-31T03:13:39;99582.50;;;9.00;100.00
54389;BME280;40975;50.390;8.640;2022-10-31T03:21:17;99576.00;;;9.04;100.00
54389;BME280;40975;50.390;8.640;2022-10-31T03:23:46;99579.09;;;9.09;100.00
54389;BME280;40975;50.390;8.640;2022-10-31T03:26:19;99580.09;;;9.08;100.00
54389;BME280;40975;50.390;8.640;2022-10-31T03:28:52;99579.94;;;9.10;100.00
54389;BME280;40975;50.390;8.640;2022-10-31T03:31:23;99580.91;;;9.09;100.00
54389;BME280;40975;50.390;8.640;2022-10-31T03:33:51;99582.97;;;9.05;100.00
54389;BME280;40975;50.390;8.640;2022-10-31T03:36:18;99569.16;;;9.01;100.00
54389;BME280;40975;50.390;8.640;2022-10-31T03:38:45;99581.88;;;9.08;100.00
54389;BME280;40975;50.390;8.640;2022-10-31T03:41:19;99570.47;;;9.07;100.00
54389;BME280;40975;50.390;8.640;2022-10-31T03:43:52;99577.53;;;9.07;100.00
54389;BME280;40975;50.390;8.640;2022-10-31T03:46:22;99576.59;;;9.08;100.00
54389;BME280;40975;50.390;8.640;2022-10-31T03:48:49;99569.59;;;9.07;100.00
54389;BME280;40975;50.390;8.640;2022-10-31T03:51:39;99569.50;;;9.08;100.00
54389;BME280;40975;50.390;8.640;2022-10-31T03:54:21;99568.13;;;9.14;100.00
54389;BME280;40975;50.390;8.640;2022-10-31T03:56:54;99564.88;;;9.10;100.00
54389;BME280;40975;50.390;8.640;2022-10-31T03:59:26;99567.06;;;9.16;100.00
54389;BME280;40975;50.390;8.640;2022-10-31T04:01:57;99558.25;;;9.16;100.00
54389;BME280;40975;50.390;8.640;2022-10-31T04:04:24;99567.16;;;9.15;100.00
54389;BME280;40975;50.390;8.640;2022-10-31T04:06:52;99559.34;;;9.13;100.00
54389;BME280;40975;50.390;8.640;2022-10-31T04:09:19;99567.28;;;9.13;100.00
54389;BME280;40975;50.390;8.640;2022-10-31T04:11:48;99569.94;;;9.13;100.00
54389;BME280;40975;50.390;8.640;2022-10-31T04:14:33;99571.63;;;9.14;100.00
54389;BME280;40975;50.390;8.640;2022-10-31T04:17:01;99576.91;;;9.14;100.00
54389;BME280;40975;50.390;8.640;2022-10-31T04:19:34;99558.53;;;9.13;100.00
54389;BME280;40975;50.390;8.640;2022-10-31T04:21:59;99579.56;;;9.14;100.00
54389;BME280;40975;50.390;8.640;2022-10-31T04:24:25;99571.16;;;9.09;100.00
54389;BME280;40975;50.390;8.640;2022-10-31T04:26:50;99572.25;;;9.07;100.00
54389;BME280;40975;50.390;8.640;2022-10-31T04:29:18;99578.50;;;9.06;100.00
54389;BME280;40975;50.390;8.640;2022-10-31T04:31:43;99578.41;;;9.07;100.00
54389;BME280;40975;50.390;8.640;2022-10-31T04:34:09;99582.25;;;9.03;100.00
54389;BME280;40975;50.390;8.640;2022-10-31T04:36:34;99590.19;;;9.03;100.00
54389;BME280;40975;50.390;8.640;2022-10-31T04:38:59;99593.09;;;9.00;100.00
54389;BME280;40975;50.390;8.640;2022-10-31T04:41:36;99593.09;;;8.89;100.00
54389;BME280;40975;50.390;8.640;2022-10-31T04:44:06;99592.16;;;8.90;100.00
54389;BME280;40975;50.390;8.640;2022-10-31T04:46:31;99593.25;;;8.87;100.00
54389;BME280;40975;50.390;8.640;2022-10-31T04:48:57;99589.78;;;8.86;100.00
54389;BME280;40975;50.390;8.640;2022-10-31T04:51:23;99594.22;;;8.86;100.00
54389;BME280;40975;50.390;8.640;2022-10-31T04:53:50;99593.75;;;8.81;100.00
54389;BME280;40975;50.390;8.640;2022-10-31T04:56:41;99594.13;;;8.76;100.00
54389;BME280;40975;50.390;8.640;2022-10-31T04:59:13;99585.59;;;8.73;100.00
54389;BME280;40975;50.390;8.640;2022-10-31T05:01:49;99577.16;;;8.67;100.00
54389;BME280;40975;50.390;8.640;2022-10-31T05:04:19;99590.16;;;8.70;100.00
54389;BME280;40975;50.390;8.640;2022-10-31T05:06:45;99581.63;;;8.67;100.00
54389;BME280;40975;50.390;8.640;2022-10-31T05:09:11;99586.94;;;8.67;100.00
54389;BME280;40975;50.390;8.640;2022-10-31T05:11:36;99576.34;;;8.67;100.00
54389;BME280;40975;50.390;8.640;2022-10-31T05:14:17;99580.66;;;8.68;100.00
54389;BME280;40975;50.390;8.640;2022-10-31T05:17:14;99577.16;;;8.67;100.00
54389;BME280;40975;50.390;8.640;2022-10-31T05:19:58;99579.09;;;8.65;100.00
54389;BME280;40975;50.390;8.640;2022-10-31T05:22:44;99575.03;;;8.61;100.00
54389;BME280;40975;50.390;8.640;2022-10-31T05:25:10;99585.47;;;8.63;100.00
54389;BME280;40975;50.390;8.640;2022-10-31T05:27:39;99574.81;;;8.53;100.00
54389;BME280;40975;50.390;8.640;2022-10-31T05:30:05;99566.25;;;8.49;100.00
54389;BME280;40975;50.390;8.640;2022-10-31T05:32:39;99565.03;;;8.42;100.00
54389;BME280;40975;50.390;8.640;2022-10-31T05:35:29;99571.28;;;8.41;100.00
54389;BME280;40975;50.390;8.640;2022-10-31T05:38:26;99578.25;;;8.42;100.00
54389;BME280;40975;50.390;8.640;2022-10-31T05:40:55;99569.72;;;8.38;100.00
54389;BME280;40975;50.390;8.640;2022-10-31T05:43:27;99581.84;;;8.41;100.00
54389;BME280;40975;50.390;8.640;2022-10-31T05:45:54;99573.81;;;8.43;100.00
54389;BME280;40975;50.390;8.640;2022-10-31T05:48:39;99572.50;;;8.37;100.00
54389;BME280;40975;50.390;8.640;2022-10-31T05:51:23;99568.16;;;8.36;100.00
54389;BME280;40975;50.390;8.640;2022-10-31T05:53:49;99572.59;;;8.35;100.00
54389;BME280;40975;50.390;8.640;2022-10-31T05:56:16;99559.38;;;8.35;100.00
54389;BME280;40975;50.390;8.640;2022-10-31T05:58:41;99566.25;;;8.38;100.00
54389;BME280;40975;50.390;8.640;2022-10-31T06:01:07;99567.06;;;8.38;100.00
54389;BME280;40975;50.390;8.640;2022-10-31T06:03:32;99555.78;;;8.36;100.00
54389;BME280;40975;50.390;8.640;2022-10-31T06:06:00;99564.66;;;8.35;100.00
54389;BME280;40975;50.390;8.640;2022-10-31T06:08:33;99571.19;;;8.31;100.00
54389;BME280;40975;50.390;8.640;2022-10-31T06:11:03;99563.97;;;8.33;100.00
54389;BME280;40975;50.390;8.640;2022-10-31T06:13:49;99567.31;;;8.35;100.00
54389;BME280;40975;50.390;8.640;2022-10-31T06:16:19;99554.94;;;8.36;100.00
54389;BME280;40975;50.390;8.640;2022-10-31T06:18:46;99556.72;;;8.35;100.00
54389;BME280;40975;50.390;8.640;2022-10-31T06:21:11;99565.63;;;8.34;100.00
54389;BME280;40975;50.390;8.640;2022-10-31T06:23:37;99564.44;;;8.38;100.00
54389;BME280;40975;50.390;8.640;2022-10-31T06:26:28;99550.00;;;8.43;100.00
54389;BME280;40975;50.390;8.640;2022-10-31T06:28:53;99561.19;;;8.46;100.00
54389;BME280;40975;50.390;8.640;2022-10-31T06:31:41;99566.38;;;8.48;100.00
54389;BME280;40975;50.390;8.640;2022-10-31T06:34:07;99566.97;;;8.51;100.00
54389;BME280;40975;50.390;8.640;2022-10-31T06:36:32;99567.56;;;8.55;100.00
54389;BME280;40975;50.390;8.640;2022-10-31T06:38:58;99567.81;;;8.63;100.00
54389;BME280;40975;50.390;8.640;2022-10-31T06:41:23;99558.06;;;8.64;100.00
54389;BME280;40975;50.390;8.640;2022-10-31T06:43:49;99566.81;;;8.76;100.00
54389;BME280;40975;50.390;8.640;2022-10-31T06:46:34;99571.47;;;8.83;100.00
54389;BME280;40975;50.390;8.640;2022-10-31T06:49:13;99563.75;;;8.92;100.00
54389;BME280;40975;50.390;8.640;2022-10-31T06:51:49;99568.28;;;9.01;100.00
54389;BME280;40975;50.390;8.640;2022-10-31T06:54:16;99568.41;;;9.11;100.00
54389;BME280;40975;50.390;8.640;2022-10-31T06:56:41;99577.88;;;9.13;100.00
54389;BME280;40975;50.390;8.640;2022-10-31T06:59:07;99568.94;;;9.26;100.00
54389;BME280;40975;50.390;8.640;2022-10-31T07:01:51;99583.94;;;9.37;100.00
54389;BME280;40975;50.390;8.640;2022-10-31T07:04:16;99575.22;;;9.46;100.00
54389;BME280;40975;50.390;8.640;2022-10-31T07:06:42;99583.09;;;9.57;100.00
54389;BME280;40975;50.390;8.640;2022-10-31T07:09:07;99578.97;;;9.64;100.00
54389;BME280;40975;50.390;8.640;2022-10-31T07:11:33;99578.19;;;9.74;100.00
54389;BME280;40975;50.390;8.640;2022-10-31T07:13:59;99585.38;;;9.83;100.00
54389;BME280;40975;50.390;8.640;2022-10-31T07:16:24;99590.41;;;9.86;100.00
54389;BME280;40975;50.390;8.640;2022-10-31T07:18:49;99593.22;;;9.94;100.00
54389;BME280;40975;50.390;8.640;2022-10-31T07:21:16;99583.41;;;10.06;100.00
54389;BME280;40975;50.390;8.640;2022-10-31T07:23:41;99589.72;;;10.15;100.00
54389;BME280;40975;50.390;8.640;2022-10-31T07:26:35;99589.63;;;10.26;100.00
54389;BME280;40975;50.390;8.640;2022-10-31T07:29:01;99601.25;;;10.35;100.00
54389;BME280;40975;50.390;8.640;2022-10-31T07:31:27;99596.31;;;10.42;100.00
54389;BME280;40975;50.390;8.640;2022-10-31T07:33:56;99600.09;;;10.49;100.00
54389;BME280;40975;50.390;8.640;2022-10-31T07:36:28;99592.84;;;10.61;100.00
54389;BME280;40975;50.390;8.640;2022-10-31T07:38:57;99588.97;;;10.75;100.00
54389;BME280;40975;50.390;8.640;2022-10-31T07:41:24;99592.50;;;10.85;100.00
54389;BME280;40975;50.390;8.640;2022-10-31T07:43:50;99590.13;;;10.92;100.00
54389;BME280;40975;50.390;8.640;2022-10-31T07:46:15;99593.78;;;11.01;100.00
54389;BME280;40975;50.390;8.640;2022-10-31T07:48:59;99579.69;;;11.10;100.00
54389;BME280;40975;50.390;8.640;2022-10-31T07:51:59;99592.69;;;11.23;100.00
54389;BME280;40975;50.390;8.640;2022-10-31T07:54:43;99588.91;;;11.35;100.00
54389;BME280;40975;50.390;8.640;2022-10-31T07:57:08;99586.13;;;11.47;100.00
54389;BME280;40975;50.390;8.640;2022-10-31T07:59:34;99580.78;;;11.57;100.00
54389;BME280;40975;50.390;8.640;2022-10-31T08:01:59;99581.03;;;11.73;100.00
54389;BME280;40975;50.390;8.640;2022-10-31T08:04:45;99582.66;;;11.94;100.00
54389;BME280;40975;50.390;8.640;2022-10-31T08:07:28;99577.75;;;12.09;100.00
54389;BME280;40975;50.390;8.640;2022-10-31T08:09:59;99584.56;;;12.31;100.00
54389;BME280;40975;50.390;8.640;2022-10-31T08:12:28;99583.13;;;12.37;100.00
54389;BME280;40975;50.390;8.640;2022-10-31T08:14:54;99586.16;;;12.52;100.00
54389;BME280;40975;50.390;8.640;2022-10-31T08:17:19;99586.06;;;12.62;100.00
54389;BME280;40975;50.390;8.640;2022-10-31T08:19:55;99581.69;;;12.70;100.00
54389;BME280;40975;50.390;8.640;2022-10-31T08:22:26;99582.22;;;12.74;100.00
54389;BME280;40975;50.390;8.640;2022-10-31T08:24:51;99586.41;;;12.77;100.00
54389;BME280;40975;50.390;8.640;2022-10-31T08:27:17;99589.16;;;12.85;100.00
54389;BME280;40975;50.390;8.640;2022-10-31T08:29:42;99588.50;;;13.01;100.00
54389;BME280;40975;50.390;8.640;2022-10-31T08:32:07;99581.59;;;13.26;100.00
54389;BME280;40975;50.390;8.640;2022-10-31T08:35:05;99583.31;;;13.98;100.00
54389;BME280;40975;50.390;8.640;2022-10-31T08:37:53;99562.88;;;14.50;100.00
54389;BME280;40975;50.390;8.640;2022-10-31T08:40:19;99566.91;;;14.45;100.00
54389;BME280;40975;50.390;8.640;2022-10-31T08:42:45;99567.19;;;14.34;100.00
54389;BME280;40975;50.390;8.640;2022-10-31T08:45:11;99576.38;;;14.40;100.00
54389;BME280;40975;50.390;8.640;2022-10-31T08:47:36;99567.53;;;14.39;100.00
54389;BME280;40975;50.390;8.640;2022-10-31T08:50:03;99563.72;;;14.42;100.00
54389;BME280;40975;50.390;8.640;2022-10-31T08:52:28;99558.22;;;14.52;100.00
54389;BME280;40975;50.390;8.640;2022-10-31T08:54:59;99564.66;;;14.67;100.00
54389;BME280;40975;50.390;8.640;2022-10-31T08:57:59;99561.53;;;14.88;100.00
54389;BME280;40975;50.390;8.640;2022-10-31T09:00:34;99567.75;;;15.05;100.00
54389;BME280;40975;50.390;8.640;2022-10-31T09:03:13;99572.13;;;15.15;100.00
54389;BME280;40975;50.390;8.640;2022-10-31T09:05:41;99560.09;;;15.85;100.00
54389;BME280;40975;50.390;8.640;2022-10-31T09:08:09;99553.09;;;17.27;100.00
54389;BME280;40975;50.390;8.640;2022-10-31T09:10:36;99552.88;;;18.05;100.00
54389;BME280;40975;50.390;8.640;2022-10-31T09:13:05;99556.88;;;19.12;97.78
54389;BME280;40975;50.390;8.640;2022-10-31T09:16:06;99548.97;;;21.15;88.15
54389;BME280;40975;50.390;8.640;2022-10-31T09:18:33;99551.06;;;21.93;83.19
54389;BME280;40975;50.390;8.640;2022-10-31T09:20:59;99546.53;;;23.30;77.09
54389;BME280;40975;50.390;8.640;2022-10-31T09:23:26;99547.44;;;23.24;76.54
54389;BME280;40975;50.390;8.640;2022-10-31T09:25:53;99550.16;;;23.49;75.83
54389;BME280;40975;50.390;8.640;2022-10-31T09:28:33;99559.75;;;23.45;74.31
54389;BME280;40975;50.390;8.640;2022-10-31T09:31:06;99550.28;;;23.80;74.76
54389;BME280;40975;50.390;8.640;2022-10-31T09:33:52;99542.72;;;23.88;73.84
54389;BME280;40975;50.390;8.640;2022-10-31T09:36:38;99544.56;;;23.69;73.11
54389;BME280;40975;50.390;8.640;2022-10-31T09:39:06;99545.81;;;23.09;75.24
54389;BME280;40975;50.390;8.640;2022-10-31T09:47:41;99543.09;;;22.77;77.19
54389;BME280;40975;50.390;8.640;2022-10-31T09:50:45;99549.13;;;22.27;80.26
54389;BME280;40975;50.390;8.640;2022-10-31T09:53:48;99535.53;;;21.75;80.17
54389;BME280;40975;50.390;8.640;2022-10-31T09:56:21;99538.19;;;21.01;82.50
54389;BME280;40975;50.390;8.640;2022-10-31T09:58:58;99535.84;;;20.91;84.35
54389;BME280;40975;50.390;8.640;2022-10-31T10:03:58;99529.06;;;21.22;85.02
54389;BME280;40975;50.390;8.640;2022-10-31T10:06:57;99532.19;;;21.33;84.40
54389;BME280;40975;50.390;8.640;2022-10-31T10:09:44;99529.63;;;20.84;84.32
54389;BME280;40975;50.390;8.640;2022-10-31T10:26:27;99517.16;;;20.83;88.08
54389;BME280;40975;50.390;8.640;2022-10-31T10:28:57;99512.41;;;20.99;90.12
54389;BME280;40975;50.390;8.640;2022-10-31T10:31:34;99518.25;;;20.47;87.98
54389;BME280;40975;50.390;8.640;2022-10-31T10:34:28;99516.34;;;20.34;89.05
54389;BME280;40975;50.390;8.640;2022-10-31T10:36:56;99521.84;;;20.61;91.38
54389;BME280;40975;50.390;8.640;2022-10-31T10:39:36;99507.44;;;20.33;91.73
54389;BME280;40975;50.390;8.640;2022-10-31T10:42:10;99515.84;;;19.82;92.20
54389;BME280;40975;50.390;8.640;2022-10-31T10:44:55;99507.09;;;19.45;94.08
54389;BME280;40975;50.390;8.640;2022-10-31T10:47:46;99498.19;;;19.22;96.92
54389;BME280;40975;50.390;8.640;2022-10-31T10:50:22;99502.16;;;18.61;99.45
54389;BME280;40975;50.390;8.640;2022-10-31T10:58:10;99491.78;;;18.07;100.00
54389;BME280;40975;50.390;8.640;2022-10-31T11:00:38;99496.22;;;17.99;100.00
54389;BME280;40975;50.390;8.640;2022-10-31T11:03:05;99484.44;;;17.85;100.00
54389;BME280;40975;50.390;8.640;2022-10-31T11:05:37;99474.53;;;17.86;100.00
54389;BME280;40975;50.390;8.640;2022-10-31T11:08:05;99483.03;;;17.90;100.00
54389;BME280;40975;50.390;8.640;2022-10-31T11:10:30;99483.16;;;17.96;100.00
54389;BME280;40975;50.390;8.640;2022-10-31T11:13:06;99481.00;;;17.92;100.00
54389;BME280;40975;50.390;8.640;2022-10-31T11:16:11;99470.91;;;17.94;100.00
54389;BME280;40975;50.390;8.640;2022-10-31T11:18:40;99467.56;;;17.77;100.00
54389;BME280;40975;50.390;8.640;2022-10-31T11:21:20;99453.59;;;17.81;100.00
54389;BME280;40975;50.390;8.640;2022-10-31T11:23:47;99457.41;;;17.72;100.00
54389;BME280;40975;50.390;8.640;2022-10-31T11:26:19;99460.34;;;17.62;100.00
54389;BME280;40975;50.390;8.640;2022-10-31T11:28:56;99450.44;;;17.93;100.00
54389;BME280;40975;50.390;8.640;2022-10-31T11:31:21;99448.72;;;18.00;100.00
54389;BME280;40975;50.390;8.640;2022-10-31T11:33:49;99444.88;;;17.94;100.00
54389;BME280;40975;50.390;8.640;2022-10-31T11:36:23;99426.09;;;17.94;100.00
54389;BME280;40975;50.390;8.640;2022-10-31T11:38:49;99433.44;;;17.85;100.00
54389;BME280;40975;50.390;8.640;2022-10-31T11:41:24;99432.88;;;17.90;100.00
54389;BME280;40975;50.390;8.640;2022-10-31T11:43:53;99421.03;;;17.84;100.00
54389;BME280;40975;50.390;8.640;2022-10-31T11:46:33;99427.22;;;18.00;100.00
54389;BME280;40975;50.390;8.640;2022-10-31T11:48:59;99421.94;;;17.92;100.00
54389;BME280;40975;50.390;8.640;2022-10-31T11:51:29;99416.66;;;17.83;100.00
54389;BME280;40975;50.390;8.640;2022-10-31T11:53:58;99416.03;;;17.96;100.00
54389;BME280;40975;50.390;8.640;2022-10-31T11:56:24;99422.06;;;17.98;100.00
54389;BME280;40975;50.390;8.640;2022-10-31T11:59:23;99407.84;;;17.90;100.00
54389;BME280;40975;50.390;8.640;2022-10-31T12:01:51;99407.63;;;17.99;100.00
54389;BME280;40975;50.390;8.640;2022-10-31T12:04:17;99407.13;;;17.96;100.00
54389;BME280;40975;50.390;8.640;2022-10-31T12:06:43;99397.56;;;17.93;100.00
54389;BME280;40975;50.390;8.640;2022-10-31T12:09:33;99404.91;;;17.84;100.00
54389;BME280;40975;50.390;8.640;2022-10-31T12:14:53;99394.53;;;17.81;100.00
54389;BME280;40975;50.390;8.640;2022-10-31T12:17:49;99390.50;;;17.70;100.00
54389;BME280;40975;50.390;8.640;2022-10-31T12:25:50;99379.94;;;17.69;100.00
54389;BME280;40975;50.390;8.640;2022-10-31T12:28:35;99375.41;;;17.69;100.00
54389;BME280;40975;50.390;8.640;2022-10-31T12:31:23;99374.53;;;17.84;100.00
54389;BME280;40975;50.390;8.640;2022-10-31T12:34:00;99377.06;;;17.70;100.00
54389;BME280;40975;50.390;8.640;2022-10-31T12:36:43;99369.66;;;17.72;100.00
54389;BME280;40975;50.390;8.640;2022-10-31T12:42:11;99368.34;;;17.83;100.00
54389;BME280;40975;50.390;8.640;2022-10-31T12:47:55;99361.44;;;17.74;100.00
54389;BME280;40975;50.390;8.640;2022-10-31T12:50:43;99360.66;;;17.80;100.00
54389;BME280;40975;50.390;8.640;2022-10-31T12:56:02;99357.13;;;17.95;100.00
54389;BME280;40975;50.390;8.640;2022-10-31T12:58:32;99359.34;;;18.06;100.00
54389;BME280;40975;50.390;8.640;2022-10-31T13:01:17;99347.19;;;18.10;99.09
54389;BME280;40975;50.390;8.640;2022-10-31T13:03:58;99334.66;;;18.17;99.16
54389;BME280;40975;50.390;8.640;2022-10-31T13:06:34;99312.72;;;18.14;99.67
54389;BME280;40975;50.390;8.640;2022-10-31T13:09:05;99301.47;;;18.25;97.19
54389;BME280;40975;50.390;8.640;2022-10-31T13:11:37;99300.53;;;18.33;100.00
54389;BME280;40975;50.390;8.640;2022-10-31T13:14:07;99313.75;;;18.13;100.00
54389;BME280;40975;50.390;8.640;2022-10-31T13:16:42;99308.06;;;17.86;100.00
54389;BME280;40975;50.390;8.640;2022-10-31T13:19:31;99284.28;;;17.83;100.00
54389;BME280;40975;50.390;8.640;2022-10-31T13:22:21;99283.97;;;17.71;99.12
54389;BME280;40975;50.390;8.640;2022-10-31T13:24:59;99290.31;;;17.85;100.00
54389;BME280;40975;50.390;8.640;2022-10-31T13:27:30;99289.41;;;17.78;100.00
54389;BME280;40975;50.390;8.640;2022-10-31T13:30:13;99280.06;;;17.74;100.00
54389;BME280;40975;50.390;8.640;2022-10-31T13:32:47;99280.97;;;17.81;100.00
54389;BME280;40975;50.390;8.640;2022-10-31T13:35:29;99275.63;;;17.81;100.00
54389;BME280;40975;50.390;8.640;2022-10-31T13:48:58;99258.00;;;17.56;100.00
54389;BME280;40975;50.390;8.640;2022-10-31T13:51:26;99250.25;;;17.47;100.00
54389;BME280;40975;50.390;8.640;2022-10-31T13:56:40;99237.06;;;17.30;100.00
54389;BME280;40975;50.390;8.640;2022-10-31T14:01:48;99252.94;;;17.32;100.00
54389;BME280;40975;50.390;8.640;2022-10-31T14:04:19;99248.25;;;17.34;100.00
54389;BME280;40975;50.390;8.640;2022-10-31T14:07:06;99249.06;;;17.19;100.00
54389;BME280;40975;50.390;8.640;2022-10-31T14:10:03;99242.91;;;17.19;100.00
54389;BME280;40975;50.390;8.640;2022-10-31T14:12:41;99237.16;;;17.07;100.00
54389;BME280;40975;50.390;8.640;2022-10-31T14:15:20;99237.53;;;17.04;100.00
54389;BME280;40975;50.390;8.640;2022-10-31T14:17:52;99242.25;;;17.02;100.00
54389;BME280;40975;50.390;8.640;2022-10-31T14:22:44;99236.66;;;16.88;100.00
54389;BME280;40975;50.390;8.640;2022-10-31T14:25:31;99226.69;;;16.67;100.00
54389;BME280;40975;50.390;8.640;2022-10-31T14:27:58;99223.81;;;16.54;100.00
54389;BME280;40975;50.390;8.640;2022-10-31T14:30:27;99228.03;;;16.48;100.00
54389;BME280;40975;50.390;8.640;2022-10-31T14:32:57;99213.53;;;16.42;100.00
54389;BME280;40975;50.390;8.640;2022-10-31T14:35:44;99222.66;;;16.33;100.00
54389;BME280;40975;50.390;8.640;2022-10-31T14:38:26;99219.03;;;16.26;100.00
54389;BME280;40975;50.390;8.640;2022-10-31T14:41:33;99222.47;;;16.20;100.00
54389;BME280;40975;50.390;8.640;2022-10-31T14:44:39;99221.44;;;16.21;100.00
54389;BME280;40975;50.390;8.640;2022-10-31T14:47:16;99205.63;;;16.11;100.00
54389;BME280;40975;50.390;8.640;2022-10-31T14:50:03;99186.09;;;16.02;100.00